createdAt,value
2022-11-23T00:02:56.474Z,77.54
2022-11-23T00:06:05.526Z,77.68
2022-11-23T00:09:14.580Z,76.82
2022-11-23T00:12:20.536Z,76.61
2022-11-23T00:15:27.277Z,77.13
2022-11-23T00:18:35.877Z,76.79
2022-11-23T00:21:42.847Z,77.08
2022-11-23T00:24:48.781Z,76.94
2022-11-23T00:27:55.540Z,77.52
2022-11-23T00:31:02.117Z,78.37
2022-11-23T00:34:11.446Z,79.12
2022-11-23T00:37:19.409Z,79.10
2022-11-23T00:40:26.165Z,78.23
2022-11-23T00:43:33.154Z,78.32
2022-11-23T00:46:39.873Z,78.06
2022-11-23T00:49:48.402Z,78.14
2022-11-23T00:52:57.664Z,78.12
2022-11-23T00:56:03.868Z,77.86
2022-11-23T00:59:10.721Z,77.44
2022-11-23T01:02:17.473Z,77.38
2022-11-23T01:05:26.772Z,77.21
2022-11-23T01:08:32.698Z,77.34
2022-11-23T01:11:39.394Z,76.95
2022-11-23T01:14:45.375Z,76.87
2022-11-23T01:17:52.099Z,76.73
2022-11-23T01:21:03.741Z,76.64
2022-11-23T01:24:16.062Z,76.36
2022-11-23T01:27:22.130Z,76.50
2022-11-23T01:30:30.678Z,76.41
2022-11-23T01:33:37.378Z,76.97
2022-11-23T01:36:47.679Z,77.14
2022-11-23T01:39:53.695Z,77.08
2022-11-23T01:43:04.010Z,77.25
2022-11-23T01:46:12.213Z,77.01
2022-11-23T01:49:19.712Z,76.91
2022-11-23T01:52:30.224Z,76.70
2022-11-23T01:55:39.822Z,76.39
2022-11-23T01:58:54.967Z,76.58
2022-11-23T02:02:02.214Z,77.12
2022-11-23T02:05:10.826Z,77.05
2022-11-23T02:08:23.051Z,76.77
2022-11-23T02:11:29.116Z,76.78
2022-11-23T02:14:36.401Z,76.43
2022-11-23T02:17:42.543Z,76.43
2022-11-23T02:20:50.188Z,76.78
2022-11-23T02:24:12.943Z,76.97
2022-11-23T02:27:24.559Z,76.70
2022-11-23T02:30:35.006Z,76.62
2022-11-23T02:33:42.074Z,76.92
2022-11-23T02:36:52.177Z,76.56
2022-11-23T02:40:07.630Z,77.27
2022-11-23T02:46:37.892Z,76.93
2022-11-23T02:49:45.958Z,76.88
2022-11-23T02:52:52.634Z,77.52
2022-11-23T02:55:58.485Z,77.29
2022-11-23T02:59:08.166Z,77.52
2022-11-23T03:02:14.369Z,77.64
2022-11-23T03:05:21.467Z,77.79
2022-11-23T03:08:30.898Z,77.83
2022-11-23T03:11:39.602Z,77.98
2022-11-23T03:14:48.204Z,78.06
2022-11-23T03:17:57.076Z,78.34
2022-11-23T03:21:07.146Z,78.01
2022-11-23T03:24:16.500Z,78.37
2022-11-23T03:27:24.322Z,78.19
2022-11-23T03:30:33.977Z,78.77
2022-11-23T03:33:41.886Z,78.55
2022-11-23T03:36:49.131Z,78.81
2022-11-23T03:39:55.209Z,78.67
2022-11-23T03:43:01.988Z,78.83
2022-11-23T03:46:10.734Z,78.60
2022-11-23T03:49:17.590Z,78.92
2022-11-23T03:52:24.107Z,78.98
2022-11-23T03:55:31.166Z,78.76
2022-11-23T03:58:37.882Z,78.38
2022-11-23T04:01:50.814Z,77.80
2022-11-23T04:05:01.506Z,78.53
2022-11-23T04:08:28.550Z,78.29
2022-11-23T04:11:35.845Z,78.22
2022-11-23T04:14:42.960Z,77.89
2022-11-23T04:17:51.741Z,77.57
2022-11-23T04:20:58.747Z,79.59
2022-11-23T04:24:04.965Z,78.84
2022-11-23T04:27:14.536Z,78.49
2022-11-23T04:30:22.278Z,78.01
2022-11-23T04:33:32.020Z,77.39
2022-11-23T04:36:39.032Z,77.20
2022-11-23T04:39:48.234Z,77.13
2022-11-23T04:43:02.109Z,76.90
2022-11-23T04:46:13.757Z,76.98
2022-11-23T04:49:23.149Z,76.71
2022-11-23T04:52:30.180Z,76.73
2022-11-23T04:55:37.117Z,77.18
2022-11-23T04:58:45.011Z,77.23
2022-11-23T05:01:52.422Z,76.57
2022-11-23T05:05:20.962Z,76.71
2022-11-23T05:08:26.954Z,76.58
2022-11-23T05:11:42.163Z,76.79
2022-11-23T05:14:49.531Z,76.89
2022-11-23T05:18:06.574Z,76.92
2022-11-23T05:21:16.987Z,76.75
2022-11-23T05:24:23.979Z,76.69
2022-11-23T05:27:46.005Z,76.79
2022-11-23T05:30:54.093Z,77.09
2022-11-23T05:34:00.135Z,76.51
2022-11-23T05:37:19.995Z,76.46
2022-11-23T05:40:48.128Z,76.59
2022-11-23T05:43:55.600Z,76.51
2022-11-23T05:47:05.786Z,76.68
2022-11-23T05:50:14.377Z,76.65
2022-11-23T05:53:28.284Z,76.24
2022-11-23T05:56:42.351Z,76.06
2022-11-23T06:00:02.157Z,75.98
2022-11-23T06:03:19.329Z,76.11
2022-11-23T06:06:25.775Z,76.01
2022-11-23T06:09:36.422Z,75.92
2022-11-23T06:12:46.780Z,76.01
2022-11-23T06:15:57.320Z,76.39
2022-11-23T06:19:10.780Z,77.02
2022-11-23T06:22:22.559Z,76.88
2022-11-23T06:25:38.953Z,76.33
2022-11-23T06:29:04.332Z,75.94
2022-11-23T06:32:10.342Z,76.17
2022-11-23T06:35:17.877Z,76.24
2022-11-23T06:38:27.154Z,76.21
2022-11-23T06:41:51.939Z,75.89
2022-11-23T06:44:57.963Z,77.00
2022-11-23T06:48:04.898Z,76.61
2022-11-23T06:51:14.306Z,77.43
2022-11-23T06:54:24.607Z,78.49
2022-11-23T06:57:36.031Z,79.01
2022-11-23T07:00:43.382Z,78.92
2022-11-23T07:03:50.365Z,78.79
2022-11-23T07:07:06.566Z,78.32
2022-11-23T07:10:21.093Z,78.10
2022-11-23T07:13:37.807Z,78.50
2022-11-23T07:16:43.946Z,77.80
2022-11-23T07:20:04.880Z,77.93
2022-11-23T07:23:25.955Z,78.12
2022-11-23T07:26:48.974Z,78.49
2022-11-23T07:30:14.698Z,78.20
2022-11-23T07:33:35.587Z,76.94
2022-11-23T07:37:01.840Z,77.95
2022-11-23T07:40:25.107Z,77.95
2022-11-23T07:43:45.930Z,77.52
2022-11-23T07:47:10.380Z,77.66
2022-11-23T07:50:32.492Z,77.97
2022-11-23T07:53:39.597Z,77.88
2022-11-23T07:56:45.547Z,77.37
2022-11-23T07:59:52.263Z,77.15
2022-11-23T08:06:28.337Z,77.41
2022-11-23T08:09:34.344Z,77.75
2022-11-23T08:12:41.173Z,77.89
2022-11-23T08:15:53.277Z,77.46
2022-11-23T08:19:03.597Z,76.58
2022-11-23T08:22:12.370Z,76.25
2022-11-23T08:25:22.399Z,76.44
2022-11-23T08:28:28.474Z,75.69
2022-11-23T08:31:35.322Z,75.92
2022-11-23T08:34:46.903Z,75.81
2022-11-23T08:37:53.824Z,75.72
2022-11-23T08:41:02.520Z,75.32
2022-11-23T08:44:12.431Z,75.18
2022-11-23T08:47:19.837Z,75.37
2022-11-23T08:50:29.485Z,75.54
2022-11-23T08:53:36.778Z,76.22
2022-11-23T08:56:43.531Z,75.62
2022-11-23T08:59:49.486Z,75.13
2022-11-23T09:02:58.465Z,74.88
2022-11-23T09:06:07.644Z,74.70
2022-11-23T09:09:14.706Z,75.18
2022-11-23T09:12:20.921Z,75.23
2022-11-23T09:15:27.696Z,75.47
2022-11-23T09:18:35.678Z,75.43
2022-11-23T09:21:45.238Z,75.83
2022-11-23T09:24:51.103Z,76.49
2022-11-23T09:28:02.160Z,75.82
2022-11-23T09:31:08.995Z,75.28
2022-11-23T09:34:16.516Z,75.59
2022-11-23T09:37:26.149Z,75.70
2022-11-23T09:40:39.432Z,75.26
2022-11-23T09:44:05.065Z,75.08
2022-11-23T09:47:46.702Z,75.21
2022-11-23T09:50:59.624Z,74.50
2022-11-23T09:54:27.801Z,74.65
2022-11-23T09:57:39.229Z,74.90
2022-11-23T10:00:53.656Z,74.56
2022-11-23T10:04:01.504Z,73.37
2022-11-23T10:07:35.735Z,74.21
2022-11-23T10:10:55.808Z,73.62
2022-11-23T10:14:29.900Z,73.80
2022-11-23T10:18:03.046Z,73.87
2022-11-23T10:21:30.172Z,72.86
2022-11-23T10:24:45.527Z,72.46
2022-11-23T10:28:03.337Z,71.61
2022-11-23T10:31:19.635Z,70.90
2022-11-23T10:34:49.672Z,72.11
2022-11-23T10:38:03.759Z,71.42
2022-11-23T10:41:16.021Z,71.18
2022-11-23T10:44:37.129Z,70.70
2022-11-23T10:47:52.283Z,70.35
2022-11-23T10:51:22.686Z,69.77
2022-11-23T10:54:35.317Z,69.53
2022-11-23T10:57:48.324Z,69.00
2022-11-23T11:01:03.876Z,68.48
2022-11-23T11:04:27.779Z,68.71
2022-11-23T11:07:35.194Z,68.39
2022-11-23T11:10:50.310Z,68.56
2022-11-23T11:14:08.670Z,68.38
2022-11-23T11:17:30.819Z,69.19
2022-11-23T11:20:39.547Z,69.31
2022-11-23T11:23:49.733Z,68.71
2022-11-23T11:27:04.538Z,69.82
2022-11-23T11:30:25.597Z,69.46
2022-11-23T11:33:49.715Z,68.97
2022-11-23T11:37:09.135Z,68.87
2022-11-23T11:40:29.079Z,68.48
2022-11-23T11:43:44.015Z,68.43
2022-11-23T11:47:00.971Z,67.96
2022-11-23T11:50:31.389Z,67.59
2022-11-23T11:53:52.485Z,68.75
2022-11-23T11:57:07.926Z,69.41
2022-11-23T12:00:20.824Z,69.58
2022-11-23T12:03:44.487Z,69.59
2022-11-23T12:07:07.338Z,69.92
2022-11-23T12:10:21.888Z,69.66
2022-11-23T12:13:35.110Z,69.35
2022-11-23T12:20:45.393Z,69.29
2022-11-23T12:24:13.885Z,69.39
2022-11-23T12:27:48.259Z,69.75
2022-11-23T12:31:13.565Z,69.25
2022-11-23T12:34:51.017Z,69.35
2022-11-23T12:38:20.743Z,69.76
2022-11-23T12:41:45.276Z,70.45
2022-11-23T12:45:20.442Z,69.62
2022-11-23T12:48:49.041Z,69.59
2022-11-23T12:52:13.452Z,69.39
2022-11-23T12:55:35.995Z,69.74
2022-11-23T12:58:51.042Z,69.85
2022-11-23T13:02:06.924Z,70.18
2022-11-23T13:06:15.088Z,70.53
2022-11-23T13:09:50.539Z,70.26
2022-11-23T13:13:40.700Z,69.92
2022-11-23T13:17:24.358Z,70.28
2022-11-23T13:21:07.294Z,70.47
2022-11-23T13:24:35.278Z,71.06
2022-11-23T13:27:57.464Z,71.15
2022-11-23T13:31:25.646Z,70.74
2022-11-23T13:34:51.326Z,70.56
2022-11-23T13:38:27.387Z,70.52
2022-11-23T13:42:03.673Z,70.89
2022-11-23T13:45:28.863Z,70.87
2022-11-23T13:49:00.050Z,70.80
2022-11-23T13:52:36.574Z,70.97
2022-11-23T13:55:43.604Z,70.95
2022-11-23T13:58:57.573Z,71.00
2022-11-23T14:02:31.218Z,71.33
2022-11-23T14:06:01.963Z,70.75
2022-11-23T14:09:25.211Z,70.66
2022-11-23T14:12:46.028Z,71.69
2022-11-23T14:16:03.100Z,71.49
2022-11-23T14:19:31.435Z,71.97
2022-11-23T14:23:03.364Z,71.60
2022-11-23T14:26:36.647Z,71.56
2022-11-23T14:30:22.838Z,71.53
2022-11-23T14:33:45.859Z,70.82
2022-11-23T14:37:05.860Z,71.54
2022-11-23T14:40:33.837Z,71.80
2022-11-23T14:43:45.824Z,71.88
2022-11-23T14:47:06.647Z,71.21
2022-11-23T14:50:27.735Z,70.60
2022-11-23T14:53:46.722Z,71.46
2022-11-23T14:57:00.857Z,71.69
2022-11-23T15:00:28.950Z,72.17
2022-11-23T15:03:50.308Z,72.26
2022-11-23T15:07:07.008Z,72.58
2022-11-23T15:10:33.912Z,72.56
2022-11-23T15:13:48.626Z,72.99
2022-11-23T15:16:57.285Z,73.17
2022-11-23T15:20:07.362Z,73.05
2022-11-23T15:23:25.242Z,72.79
2022-11-23T15:26:48.037Z,72.39
2022-11-23T15:29:58.584Z,71.80
2022-11-23T15:33:14.455Z,72.04
2022-11-23T15:36:28.228Z,72.23
2022-11-23T15:39:35.723Z,72.66
2022-11-23T15:42:42.736Z,72.47
2022-11-23T15:46:09.087Z,72.88
2022-11-23T15:49:20.856Z,73.30
2022-11-23T15:52:30.259Z,73.07
2022-11-23T15:55:37.769Z,73.02
2022-11-23T15:58:54.454Z,72.90
2022-11-23T16:02:03.353Z,72.64
2022-11-23T16:05:22.510Z,72.87
2022-11-23T16:08:28.851Z,72.72
2022-11-23T16:11:39.023Z,72.54
2022-11-23T16:14:45.061Z,73.06
2022-11-23T16:17:52.177Z,73.45
2022-11-23T16:21:05.732Z,73.85
2022-11-23T16:24:26.086Z,75.13
2022-11-23T16:27:32.218Z,74.84
2022-11-23T16:30:42.853Z,75.20
2022-11-23T16:33:48.855Z,75.06
2022-11-23T16:36:59.488Z,75.51
2022-11-23T16:40:05.522Z,75.77
2022-11-23T16:43:15.038Z,76.28
2022-11-23T16:46:21.003Z,75.96
2022-11-23T16:49:27.959Z,76.10
2022-11-23T16:52:39.550Z,75.95
2022-11-23T16:55:47.276Z,75.16
2022-11-23T16:58:55.492Z,74.70
2022-11-23T17:02:02.474Z,75.39
2022-11-23T17:05:17.586Z,74.50
2022-11-23T17:08:27.047Z,74.74
2022-11-23T17:11:33.279Z,75.18
2022-11-23T17:14:42.879Z,75.11
2022-11-23T17:17:51.797Z,74.55
2022-11-23T17:20:59.235Z,74.47
2022-11-23T17:24:09.003Z,73.77
2022-11-23T17:27:21.670Z,73.76
2022-11-23T17:30:27.877Z,73.48
2022-11-23T17:33:34.784Z,73.98
2022-11-23T17:36:42.768Z,74.01
2022-11-23T17:39:53.494Z,74.10
2022-11-23T17:43:00.509Z,73.86
2022-11-23T17:46:08.016Z,74.64
2022-11-23T17:49:18.361Z,74.69
2022-11-23T17:52:27.453Z,75.01
2022-11-23T17:55:36.438Z,74.84
2022-11-23T17:58:43.293Z,74.83
2022-11-23T18:01:49.420Z,74.94
2022-11-23T18:04:56.417Z,74.67
2022-11-23T18:08:02.466Z,74.60
2022-11-23T18:11:12.500Z,74.71
2022-11-23T18:14:19.484Z,75.68
2022-11-23T18:17:26.519Z,76.24
2022-11-23T18:20:32.604Z,76.39
2022-11-23T18:23:40.200Z,76.20
2022-11-23T18:26:49.182Z,76.14
2022-11-23T18:29:56.187Z,75.74
2022-11-23T18:33:02.377Z,75.44
2022-11-23T18:36:13.059Z,75.57
2022-11-23T18:39:19.096Z,75.55
2022-11-23T18:42:28.633Z,74.65
2022-11-23T18:46:10.464Z,75.69
2022-11-23T18:49:17.353Z,76.39
2022-11-23T18:52:23.331Z,76.79
2022-11-23T18:55:30.459Z,75.87
2022-11-23T18:58:37.144Z,76.48
2022-11-23T19:01:46.566Z,76.24
2022-11-23T19:04:52.609Z,76.23
2022-11-23T19:08:05.777Z,76.34
2022-11-23T19:11:17.736Z,76.64
2022-11-23T19:14:25.266Z,77.14
2022-11-23T19:17:34.378Z,77.81
2022-11-23T19:20:42.892Z,77.59
2022-11-23T19:23:54.079Z,76.64
2022-11-23T19:27:01.006Z,75.55
2022-11-23T19:30:09.622Z,76.24
2022-11-23T19:33:20.049Z,76.21
2022-11-23T19:36:28.763Z,76.09
2022-11-23T19:39:36.398Z,75.60
2022-11-23T19:42:42.882Z,75.50
2022-11-23T19:45:57.811Z,75.93
2022-11-23T19:49:08.608Z,75.99
2022-11-23T19:52:15.715Z,75.63
2022-11-23T19:55:22.113Z,75.46
2022-11-23T19:58:31.271Z,75.57
2022-11-23T20:01:37.950Z,75.54
2022-11-23T20:04:47.574Z,74.61
2022-11-23T20:07:54.451Z,74.40
2022-11-23T20:11:01.426Z,74.54
2022-11-23T20:14:08.050Z,74.52
2022-11-23T20:17:15.948Z,74.65
2022-11-23T20:20:24.605Z,73.71
2022-11-23T20:23:32.524Z,73.69
2022-11-23T20:26:39.342Z,74.79
2022-11-23T20:29:46.962Z,74.82
2022-11-23T20:32:54.078Z,74.62
2022-11-23T20:36:17.115Z,75.10
2022-11-23T20:39:23.676Z,75.03
2022-11-23T20:42:32.043Z,75.10
2022-11-23T20:45:38.152Z,75.70
2022-11-23T20:48:48.651Z,75.69
2022-11-23T20:51:57.365Z,76.17
2022-11-23T20:55:04.398Z,76.06
2022-11-23T20:58:10.379Z,75.43
2022-11-23T21:01:19.939Z,75.77
2022-11-23T21:04:26.300Z,76.32
2022-11-23T21:07:35.882Z,76.33
2022-11-23T21:10:54.339Z,76.60
2022-11-23T21:14:16.932Z,75.69
2022-11-23T21:17:24.228Z,75.18
2022-11-23T21:20:36.281Z,75.17
2022-11-23T21:23:49.503Z,75.58
2022-11-23T21:26:59.343Z,75.75
2022-11-23T21:30:05.852Z,76.02
2022-11-23T21:33:12.716Z,75.92
2022-11-23T21:36:18.994Z,75.61
2022-11-23T21:39:30.243Z,75.51
2022-11-23T21:42:37.444Z,75.59
2022-11-23T21:45:44.887Z,75.37
2022-11-23T21:48:50.908Z,74.83
2022-11-23T21:51:57.804Z,74.71
2022-11-23T21:55:06.585Z,74.92
2022-11-23T21:58:13.453Z,74.64
2022-11-23T22:01:23.154Z,74.19
2022-11-23T22:04:30.204Z,73.66
2022-11-23T22:07:36.914Z,73.78
2022-11-23T22:10:46.401Z,73.38
2022-11-23T22:13:58.134Z,74.04
2022-11-23T22:17:06.441Z,73.97
2022-11-23T22:20:14.648Z,72.96
2022-11-23T22:23:21.478Z,73.31
2022-11-23T22:26:30.980Z,73.43
2022-11-23T22:29:37.899Z,73.92
2022-11-23T22:32:46.279Z,73.28
2022-11-23T22:35:53.413Z,73.91
2022-11-23T22:39:02.330Z,74.03
2022-11-23T22:42:11.993Z,74.66
2022-11-23T22:45:18.254Z,75.26
2022-11-23T22:48:25.075Z,74.98
2022-11-23T22:51:33.065Z,74.71
2022-11-23T22:54:40.004Z,74.40
2022-11-23T22:57:48.584Z,74.64
2022-11-23T23:00:56.299Z,74.43
2022-11-23T23:04:04.601Z,74.80
2022-11-23T23:07:11.509Z,74.90
2022-11-23T23:10:17.667Z,74.49
2022-11-23T23:13:27.207Z,74.37
2022-11-23T23:16:33.686Z,74.41
2022-11-23T23:19:40.656Z,74.40
2022-11-23T23:22:47.273Z,74.51
2022-11-23T23:25:57.233Z,75.51
2022-11-23T23:29:05.840Z,75.22
2022-11-23T23:32:13.745Z,75.07
2022-11-23T23:35:19.970Z,75.47
2022-11-23T23:38:30.140Z,75.77
2022-11-23T23:41:36.453Z,76.09
2022-11-23T23:44:45.862Z,75.81
2022-11-23T23:47:51.780Z,75.53
2022-11-23T23:50:59.125Z,75.77
2022-11-23T23:54:05.132Z,76.08
2022-11-23T23:57:12.706Z,76.13
